createdAt,value
2022-10-09T00:07:39.187Z,5.4
2022-10-09T00:17:41.039Z,5.4
2022-10-09T00:27:43.216Z,5.3
2022-10-09T00:37:44.840Z,5.2
2022-10-09T00:47:46.965Z,4.9
2022-10-09T00:57:49.288Z,5.1
2022-10-09T01:07:51.317Z,4.9
2022-10-09T01:08:35.064Z,4.9
2022-10-09T01:18:00.747Z,4.9
2022-10-09T01:28:03.151Z,4.8
2022-10-09T01:38:05.353Z,4.7
2022-10-09T01:48:07.853Z,4.5
2022-10-09T01:58:09.675Z,4.7
2022-10-09T02:18:14.045Z,4.5
2022-10-09T02:28:16.528Z,4.4
2022-10-09T02:38:18.638Z,4.2
2022-10-09T02:48:20.688Z,4.1
2022-10-09T02:58:22.748Z,4
2022-10-09T03:08:24.692Z,4
2022-10-09T03:18:26.828Z,3.8
2022-10-09T03:28:28.777Z,3.7
2022-10-09T03:38:30.699Z,3.8
2022-10-09T03:48:33.302Z,3.6
2022-10-09T03:58:35.670Z,3.6
2022-10-09T04:08:38.106Z,3.5
2022-10-09T04:18:40.470Z,3.2
2022-10-09T04:28:42.322Z,3.4
2022-10-09T04:48:46.467Z,3.1
2022-10-09T04:58:48.232Z,3.2
2022-10-09T05:08:50.144Z,3
2022-10-09T05:28:54.968Z,3
2022-10-09T05:38:56.896Z,3
2022-10-09T05:48:59.236Z,3
2022-10-09T05:59:00.955Z,3.1
2022-10-09T06:09:03.136Z,3.1
2022-10-09T06:19:04.781Z,3.5
2022-10-09T06:29:07.065Z,3.7
2022-10-09T06:39:09.149Z,4
2022-10-09T06:49:11.484Z,5.3
2022-10-09T06:59:13.335Z,5.4
2022-10-09T07:09:15.344Z,5.5
2022-10-09T07:39:21.412Z,7
2022-10-09T07:49:23.778Z,7.5
2022-10-09T07:59:26.138Z,8.3
2022-10-09T08:09:27.798Z,9.2
2022-10-09T08:39:35.008Z,10.6
2022-10-09T08:49:37.438Z,11
2022-10-09T08:59:39.782Z,11.3
2022-10-09T09:29:46.767Z,13.1
2022-10-09T09:59:53.265Z,14
2022-10-09T10:09:55.862Z,14.6
2022-10-09T10:40:02.410Z,15.1
2022-10-09T11:00:06.700Z,15.5
2022-10-09T11:30:12.777Z,15.9
2022-10-09T11:40:15.106Z,15.9
2022-10-09T11:50:17.405Z,16.2
2022-10-09T12:00:19.214Z,16
2022-10-09T12:10:21.437Z,16.1
2022-10-09T12:20:23.557Z,16.3
2022-10-09T12:30:25.576Z,16.3
2022-10-09T12:40:27.918Z,16
2022-10-09T12:50:29.701Z,16.1
2022-10-09T13:00:31.786Z,16.2
2022-10-09T13:20:35.738Z,16.6
2022-10-09T13:30:38.383Z,16.7
2022-10-09T13:40:40.380Z,16.5
2022-10-09T13:50:42.887Z,16.8
2022-10-09T14:00:45.224Z,16.7
2022-10-09T14:20:49.361Z,16.8
2022-10-09T14:50:56.445Z,16.8
2022-10-09T15:00:58.954Z,16.7
2022-10-09T15:11:01.296Z,16.6
2022-10-09T15:31:05.796Z,16.6
2022-10-09T15:41:08.208Z,16.4
2022-10-09T16:01:12.882Z,16.3
2022-10-09T16:11:15.208Z,16
2022-10-09T16:21:17.702Z,15.6
2022-10-09T17:21:31.146Z,12.6
2022-10-09T17:31:32.089Z,12.7
2022-10-09T18:01:38.234Z,10.9
2022-10-09T18:11:40.003Z,10.5
2022-10-09T18:31:44.124Z,9.8
2022-10-09T18:41:46.638Z,9.4
2022-10-09T18:51:49.219Z,9.1
2022-10-09T19:01:51.583Z,8.9
2022-10-09T19:11:54.072Z,8.7
2022-10-09T19:21:56.611Z,8.5
2022-10-09T19:31:58.663Z,8.4
2022-10-09T19:42:00.498Z,8.3
2022-10-09T19:52:02.817Z,8.1
2022-10-09T20:02:05.052Z,7.9
2022-10-09T20:12:06.832Z,7.6
2022-10-09T20:22:08.930Z,7.6
2022-10-09T20:32:11.125Z,7.5
2022-10-09T20:42:13.557Z,7.2
2022-10-09T20:52:16.199Z,7.1
2022-10-09T21:02:17.882Z,6.9
2022-10-09T21:12:19.647Z,6.8
2022-10-09T21:22:21.995Z,6.6
2022-10-09T21:32:24.549Z,6.5
2022-10-09T21:42:27.134Z,6.6
2022-10-09T21:52:29.236Z,6.3
2022-10-09T22:02:31.772Z,6.2
2022-10-09T22:12:33.613Z,6.2
2022-10-09T22:22:35.948Z,6.1
2022-10-09T22:32:37.617Z,5.9
2022-10-09T22:42:39.933Z,5.9
2022-10-09T22:52:42.565Z,5.8
2022-10-09T23:02:44.983Z,5.6
2022-10-09T23:12:47.272Z,5.6
2022-10-09T23:22:49.246Z,5.5
2022-10-09T23:32:51.316Z,5.5
2022-10-09T23:42:53.335Z,5.4
2022-10-09T23:52:55.403Z,5.3
